Time;durP1;ratioP1;P1;durP2;ratioP2;P2;SDS_P1;SDS_P2;PMS_P1;PMS_P2;Temp;Humidity;BMP_temperature;BMP_pressure;BME280_temperature;BME280_humidity;BME280_pressure;Samples;Min_cycle;Max_cycle;Signal;HPM_P1;HPM_P2
2023/07/11 00:00:45;;;;;;;6.60;2.30;;;17.70;99.90;;;;;;7385357;19;20014;-67
2023/07/11 00:03:12;;;;;;;7.53;2.40;;;17.70;99.90;;;;;;7382287;19;20358;-67
2023/07/11 00:05:38;;;;;;;6.47;3.03;;;17.70;99.90;;;;;;7381241;19;20043;-67
2023/07/11 00:08:06;;;;;;;7.35;2.97;;;17.70;99.90;;;;;;7383520;19;20489;-67
2023/07/11 00:10:32;;;;;;;5.22;2.75;;;17.70;99.90;;;;;;7381954;19;20082;-67
2023/07/11 00:12:58;;;;;;;6.28;2.83;;;17.70;99.90;;;;;;7382911;19;20399;-67
2023/07/11 00:15:25;;;;;;;7.10;2.83;;;17.70;99.90;;;;;;7373930;19;20505;-67
2023/07/11 00:17:52;;;;;;;7.65;3.00;;;17.80;99.90;;;;;;7377925;19;20354;-67
2023/07/11 00:20:20;;;;;;;5.45;2.38;;;17.80;99.90;;;;;;7379277;19;20022;-67
2023/07/11 00:22:46;;;;;;;8.65;3.60;;;17.80;99.90;;;;;;7382076;19;20018;-67
2023/07/11 00:25:13;;;;;;;11.38;2.88;;;17.80;99.90;;;;;;7380987;19;20366;-67
2023/07/11 00:27:39;;;;;;;7.53;3.40;;;17.80;99.90;;;;;;7373498;19;20019;-61
2023/07/11 00:30:07;;;;;;;7.18;2.42;;;17.80;99.90;;;;;;7368722;19;20565;-61
2023/07/11 00:32:35;;;;;;;6.55;2.65;;;17.90;99.90;;;;;;7377379;19;20514;-61
2023/07/11 00:35:02;;;;;;;7.88;3.05;;;17.90;99.90;;;;;;7374086;19;20101;-61
2023/07/11 00:37:28;;;;;;;6.65;2.20;;;17.90;99.90;;;;;;7377844;19;20028;-61
2023/07/11 00:39:55;;;;;;;6.45;2.47;;;17.90;99.90;;;;;;7375535;19;20513;-61
2023/07/11 00:42:22;;;;;;;7.07;2.55;;;17.90;99.90;;;;;;7381145;19;20025;-61
2023/07/11 00:44:59;;;;;;;5.78;2.10;;;17.90;99.90;;;;;;7377958;19;20022;-62
2023/07/11 00:47:27;;;;;;;5.10;2.22;;;17.90;99.90;;;;;;7378006;19;20082;-61
2023/07/11 00:50:01;;;;;;;8.50;2.60;;;18.00;99.90;;;;;;7374700;19;20745;-61
2023/07/11 00:52:32;;;;;;;5.55;2.10;;;18.00;99.90;;;;;;7375716;19;20018;-62
2023/07/11 00:55:00;;;;;;;8.02;2.65;;;18.00;99.90;;;;;;7372816;19;20540;-61
2023/07/11 00:57:30;;;;;;;6.47;2.45;;;18.00;99.90;;;;;;7376590;19;20018;-61
2023/07/11 00:59:56;;;;;;;5.10;2.20;;;18.00;99.90;;;;;;7381769;19;20090;-67
2023/07/11 01:02:26;;;;;;;5.20;2.20;;;18.00;99.90;;;;;;7371445;19;20406;-61
2023/07/11 01:04:58;;;;;;;8.32;2.60;;;18.00;99.90;;;;;;7379398;19;20429;-61
2023/07/11 01:07:29;;;;;;;6.15;2.00;;;17.90;99.90;;;;;;7369495;19;20015;-61
2023/07/11 01:09:58;;;;;;;7.40;2.20;;;18.00;99.90;;;;;;7375376;19;20026;-66
2023/07/11 01:12:25;;;;;;;5.85;2.28;;;17.90;99.90;;;;;;7361910;19;20372;-67
2023/07/11 01:14:51;;;;;;;6.32;2.30;;;17.90;99.90;;;;;;7375207;19;20508;-67
2023/07/11 01:17:33;;;;;;;7.25;2.30;;;17.80;99.90;;;;;;7359707;19;20010;-67
2023/07/11 01:20:01;;;;;;;;;;;17.80;99.90;;;;;;7363049;19;20018;-67
2023/07/11 01:22:29;;;;;;;4.03;2.17;;;17.80;99.90;;;;;;7376754;19;20434;-67
2023/07/11 01:25:01;;;;;;;6.15;2.40;;;17.70;99.90;;;;;;7378691;19;20018;-67
2023/07/11 01:27:27;;;;;;;6.95;2.65;;;17.70;99.90;;;;;;7378453;19;20041;-66
2023/07/11 01:29:57;;;;;;;6.97;2.63;;;17.60;99.90;;;;;;7373635;19;20478;-67
2023/07/11 01:32:23;;;;;;;8.95;3.17;;;17.60;99.90;;;;;;7378711;19;20347;-67
2023/07/11 01:34:49;;;;;;;7.43;2.95;;;17.60;99.90;;;;;;7374440;19;20034;-66
2023/07/11 01:37:16;;;;;;;6.20;2.80;;;17.50;99.90;;;;;;7377001;19;20493;-66
2023/07/11 01:39:42;;;;;;;9.90;2.75;;;17.50;99.90;;;;;;7378790;19;20019;-67
2023/07/11 01:42:09;;;;;;;7.18;2.78;;;17.50;99.90;;;;;;7374306;19;20022;-67
2023/07/11 01:44:36;;;;;;;6.38;2.70;;;17.40;99.90;;;;;;7378457;19;20018;-67
2023/07/11 01:47:04;;;;;;;10.27;3.63;;;17.40;99.90;;;;;;7375902;19;20011;-67
2023/07/11 01:49:30;;;;;;;7.15;3.35;;;17.40;99.90;;;;;;7378177;19;21491;-61
2023/07/11 01:52:20;;;;;;;7.35;3.13;;;17.40;99.90;;;;;;7362355;19;20026;-61
2023/07/11 01:54:48;;;;;;;5.97;2.80;;;17.30;99.90;;;;;;7364638;19;20082;-61
2023/07/11 01:57:14;;;;;;;7.25;2.85;;;17.30;99.90;;;;;;7368741;19;20037;-62
2023/07/11 01:59:41;;;;;;;11.10;3.63;;;17.30;99.90;;;;;;7369275;19;20386;-62
2023/07/11 02:02:08;;;;;;;7.57;4.07;;;17.30;99.90;;;;;;7366995;19;20602;-61
2023/07/11 02:04:36;;;;;;;6.32;3.35;;;17.30;99.90;;;;;;7365528;19;20404;-61
2023/07/11 02:07:04;;;;;;;8.77;4.35;;;17.30;99.90;;;;;;7365027;19;20016;-61
2023/07/11 02:09:32;;;;;;;7.38;3.70;;;17.20;99.90;;;;;;7374444;19;20237;-61
2023/07/11 02:11:58;;;;;;;11.35;3.75;;;17.20;99.90;;;;;;7372886;19;20022;-67
2023/07/11 02:14:25;;;;;;;9.63;3.45;;;17.10;99.90;;;;;;7373381;19;20395;-61
2023/07/11 02:16:52;;;;;;;7.53;3.63;;;17.10;99.90;;;;;;7368748;19;20465;-61
2023/07/11 02:19:22;;;;;;;7.63;3.80;;;17.10;99.90;;;;;;7372945;19;20026;-61
2023/07/11 02:21:49;;;;;;;8.82;3.78;;;17.10;99.90;;;;;;7369484;19;20033;-61
2023/07/11 02:24:17;;;;;;;8.30;4.18;;;17.00;99.90;;;;;;7367647;19;20022;-61
2023/07/11 02:26:44;;;;;;;8.68;4.43;;;17.00;99.90;;;;;;7369580;19;20052;-61
2023/07/11 02:29:11;;;;;;;9.25;4.10;;;17.10;99.90;;;;;;7380063;19;20460;-68
2023/07/11 02:31:38;;;;;;;7.88;4.38;;;17.10;99.90;;;;;;7372922;19;20455;-61
2023/07/11 02:34:05;;;;;;;8.82;4.22;;;17.00;99.90;;;;;;7374295;19;20071;-62
2023/07/11 02:36:32;;;;;;;6.60;4.22;;;17.00;99.90;;;;;;7367906;19;20014;-62
2023/07/11 02:38:58;;;;;;;9.65;4.63;;;17.10;99.90;;;;;;7363108;19;20028;-67
2023/07/11 02:41:25;;;;;;;8.77;4.35;;;17.00;99.90;;;;;;7372928;19;20038;-61
2023/07/11 02:43:52;;;;;;;9.63;4.38;;;17.00;99.90;;;;;;7368975;19;20018;-61
2023/07/11 02:46:18;;;;;;;8.40;4.63;;;17.00;99.90;;;;;;7368843;19;20398;-61
2023/07/11 02:48:45;;;;;;;6.55;3.92;;;17.00;99.90;;;;;;7368769;19;21270;-61
2023/07/11 02:51:11;;;;;;;11.90;5.03;;;17.00;99.90;;;;;;7370057;19;20460;-61
2023/07/11 02:53:38;;;;;;;7.93;3.80;;;17.00;99.90;;;;;;7370240;19;20026;-61
2023/07/11 02:56:04;;;;;;;6.63;4.25;;;17.00;99.90;;;;;;7369577;19;20022;-67
2023/07/11 02:58:31;;;;;;;9.80;4.38;;;16.90;99.90;;;;;;7370617;19;20018;-67
2023/07/11 03:01:00;;;;;;;11.05;5.00;;;16.90;99.90;;;;;;7371186;19;20377;-67
2023/07/11 03:03:27;;;;;;;12.65;4.65;;;16.90;99.90;;;;;;7368768;19;20026;-67
2023/07/11 03:05:55;;;;;;;9.52;4.55;;;16.80;99.90;;;;;;7371648;19;20022;-61
2023/07/11 03:08:42;;;;;;;6.72;3.95;;;16.80;99.90;;;;;;7366027;19;20111;-61
2023/07/11 03:11:08;;;;;;;8.85;4.18;;;16.80;99.90;;;;;;7367989;19;20051;-61
2023/07/11 03:13:34;;;;;;;9.55;5.22;;;16.80;99.90;;;;;;7365348;19;20055;-61
2023/07/11 03:16:02;;;;;;;8.73;4.68;;;16.70;99.90;;;;;;7374655;19;20031;-61
2023/07/11 03:18:32;;;;;;;6.47;4.13;;;16.70;99.90;;;;;;7378552;19;20901;-61
2023/07/11 03:21:00;;;;;;;7.00;4.47;;;16.60;99.90;;;;;;7379243;19;20026;-61
2023/07/11 03:23:27;;;;;;;9.18;4.93;;;16.60;99.90;;;;;;7374716;19;20018;-61
2023/07/11 03:25:53;;;;;;;8.00;4.90;;;16.60;99.90;;;;;;7380428;19;20476;-60
2023/07/11 03:28:20;;;;;;;8.70;4.60;;;16.60;99.90;;;;;;7377323;19;20094;-61
2023/07/11 03:30:47;;;;;;;11.18;4.90;;;16.60;99.90;;;;;;7376594;19;20014;-60
2023/07/11 03:33:14;;;;;;;9.20;4.47;;;16.50;99.90;;;;;;7374681;19;20106;-61
2023/07/11 03:35:40;;;;;;;11.50;5.32;;;16.60;99.90;;;;;;7370203;19;20018;-60
2023/07/11 03:38:06;;;;;;;8.13;4.80;;;16.60;99.90;;;;;;7371472;19;20029;-61
2023/07/11 03:40:32;;;;;;;9.68;4.57;;;16.50;99.90;;;;;;7372534;19;20041;-66
2023/07/11 03:42:59;;;;;;;9.40;4.40;;;16.50;99.90;;;;;;7381617;19;20019;-68
2023/07/11 03:45:26;;;;;;;13.45;5.25;;;16.50;99.90;;;;;;7374598;19;20054;-67
2023/07/11 03:47:53;;;;;;;9.40;5.25;;;16.50;99.90;;;;;;7374659;19;20470;-68
2023/07/11 03:50:20;;;;;;;10.43;5.45;;;16.50;99.90;;;;;;7378594;19;20029;-66
2023/07/11 03:52:47;;;;;;;9.00;4.97;;;16.50;99.90;;;;;;7378244;19;20026;-67
2023/07/11 03:55:14;;;;;;;8.60;4.95;;;16.50;99.90;;;;;;7378136;19;20019;-67
2023/07/11 03:57:40;;;;;;;8.38;5.13;;;16.40;99.90;;;;;;7379827;19;20504;-66
2023/07/11 04:00:07;;;;;;;10.80;5.82;;;16.50;99.90;;;;;;7375171;19;20023;-66
2023/07/11 04:02:39;;;;;;;9.90;6.05;;;16.40;99.90;;;;;;7378348;19;20441;-67
2023/07/11 04:05:06;;;;;;;10.18;5.63;;;16.50;99.90;;;;;;7377374;19;20022;-67
2023/07/11 04:07:32;;;;;;;8.75;5.80;;;16.50;99.90;;;;;;7376273;19;20017;-67
2023/07/11 04:10:00;;;;;;;11.57;5.68;;;16.50;99.90;;;;;;7376621;19;20031;-66
2023/07/11 04:12:26;;;;;;;10.63;6.00;;;16.50;99.90;;;;;;7374568;19;20022;-67
2023/07/11 04:14:52;;;;;;;12.45;6.10;;;16.60;99.90;;;;;;7378038;19;20615;-67
2023/07/11 04:17:20;;;;;;;12.77;6.35;;;16.60;99.90;;;;;;7373822;19;20015;-67
2023/07/11 04:19:46;;;;;;;10.05;6.63;;;16.60;99.90;;;;;;7373777;19;20089;-67
2023/07/11 04:22:13;;;;;;;10.45;6.05;;;16.60;99.90;;;;;;7378389;19;20018;-67
2023/07/11 04:24:39;;;;;;;8.77;5.45;;;16.60;99.90;;;;;;7376969;19;20042;-67
2023/07/11 04:27:05;;;;;;;11.88;6.55;;;16.70;99.90;;;;;;7377264;19;20011;-67
2023/07/11 04:29:31;;;;;;;10.52;4.97;;;16.70;99.90;;;;;;7379483;19;20026;-60
2023/07/11 04:31:58;;;;;;;7.88;5.80;;;16.80;99.90;;;;;;7375717;19;20079;-66
2023/07/11 04:34:24;;;;;;;9.98;5.35;;;16.80;99.90;;;;;;7379891;19;20022;-67
2023/07/11 04:36:50;;;;;;;8.23;6.20;;;16.90;99.90;;;;;;7369993;19;20523;-67
2023/07/11 04:39:17;;;;;;;10.38;6.32;;;16.90;99.90;;;;;;7375517;19;20101;-66
2023/07/11 04:41:43;;;;;;;9.20;5.45;;;16.90;99.90;;;;;;7370173;19;20050;-66
2023/07/11 04:44:09;;;;;;;10.95;6.53;;;17.00;99.90;;;;;;7372308;19;20018;-66
2023/07/11 04:46:35;;;;;;;9.35;6.32;;;17.00;99.90;;;;;;7376047;19;20458;-66
2023/07/11 04:49:02;;;;;;;10.30;5.82;;;17.00;99.90;;;;;;7372538;19;20041;-66
2023/07/11 04:51:28;;;;;;;9.80;6.28;;;17.10;99.90;;;;;;7373403;19;20098;-66
2023/07/11 04:53:54;;;;;;;7.75;6.15;;;17.30;99.90;;;;;;7370267;19;20525;-66
2023/07/11 04:56:21;;;;;;;9.00;5.65;;;17.30;99.90;;;;;;7372119;19;20491;-66
2023/07/11 04:58:47;;;;;;;9.55;5.72;;;17.40;99.90;;;;;;7374837;19;20026;-64
2023/07/11 05:01:16;;;;;;;12.05;5.93;;;17.40;99.90;;;;;;7378440;19;20037;-58
2023/07/11 05:03:44;;;;;;;9.93;5.30;;;17.50;99.90;;;;;;7370214;19;20019;-59
2023/07/11 05:06:12;;;;;;;10.15;5.50;;;17.60;99.90;;;;;;7375478;19;20082;-59
2023/07/11 05:08:40;;;;;;;8.80;5.07;;;17.60;99.90;;;;;;7373240;19;20125;-60
2023/07/11 05:11:16;;;;;;;9.57;5.25;;;17.60;99.90;;;;;;7374412;19;20775;-59
2023/07/11 05:13:45;;;;;;;7.97;5.95;;;17.70;99.90;;;;;;7370098;19;20052;-60
2023/07/11 05:16:18;;;;;;;8.75;5.82;;;17.90;99.90;;;;;;7365875;19;20055;-59
2023/07/11 05:18:46;;;;;;;9.55;5.30;;;18.20;99.90;;;;;;7372315;19;20485;-59
2023/07/11 05:21:15;;;;;;;13.43;5.45;;;18.60;99.90;;;;;;7374883;19;20015;-60
2023/07/11 05:23:42;;;;;;;9.88;4.88;;;19.00;99.90;;;;;;7375081;19;20015;-60
2023/07/11 05:26:11;;;;;;;10.40;4.63;;;19.30;99.90;;;;;;7375166;19;20035;-59
2023/07/11 05:28:38;;;;;;;9.48;6.00;;;19.40;99.90;;;;;;7373753;19;20049;-63
2023/07/11 05:31:06;;;;;;;10.82;6.32;;;19.70;99.90;;;;;;7376448;19;20015;-62
2023/07/11 05:33:33;;;;;;;22.23;17.48;;;19.90;99.90;;;;;;7372381;19;20118;-60
2023/07/11 05:36:13;;;;;;;90.43;81.25;;;20.20;99.90;;;;;;7370885;19;20082;-61
2023/07/11 05:38:40;;;;;;;18.65;13.07;;;20.50;99.90;;;;;;7375169;19;20500;-62
2023/07/11 05:41:06;;;;;;;13.20;8.88;;;20.70;99.90;;;;;;7381481;19;20041;-66
2023/07/11 05:43:32;;;;;;;10.77;8.48;;;20.90;99.90;;;;;;7382750;19;20019;-66
2023/07/11 05:45:58;;;;;;;12.05;6.40;;;20.90;99.90;;;;;;7381056;19;20010;-66
2023/07/11 05:48:25;;;;;;;9.00;5.70;;;21.00;99.90;;;;;;7373985;19;20410;-62
2023/07/11 05:51:21;;;;;;;10.20;5.03;;;21.00;99.90;;;;;;7372560;19;20374;-61
2023/07/11 05:53:51;;;;;;;8.70;5.05;;;21.20;99.90;;;;;;7366919;19;20608;-62
2023/07/11 05:56:18;;;;;;;8.60;4.68;;;21.40;99.90;;;;;;7376233;19;20452;-69
2023/07/11 05:58:47;;;;;;;7.72;4.38;;;21.60;99.90;;;;;;7375625;19;20015;-67
2023/07/11 06:01:16;;;;;;;11.80;5.63;;;21.60;99.90;;;;;;7373514;19;20006;-66
2023/07/11 06:03:45;;;;;;;8.48;4.38;;;21.70;99.90;;;;;;7374676;19;20029;-67
2023/07/11 06:06:14;;;;;;;8.25;5.00;;;21.70;99.90;;;;;;7376260;19;20504;-60
2023/07/11 06:08:40;;;;;;;11.45;4.47;;;21.80;99.90;;;;;;7374697;19;20022;-60
2023/07/11 06:11:08;;;;;;;7.63;4.32;;;22.20;99.90;;;;;;7373993;19;20022;-60
2023/07/11 06:13:37;;;;;;;7.63;4.18;;;22.30;99.90;;;;;;7372173;19;20094;-61
2023/07/11 06:16:06;;;;;;;7.95;4.10;;;22.80;99.90;;;;;;7371184;19;20057;-61
2023/07/11 06:18:36;;;;;;;7.85;4.15;;;23.10;99.90;;;;;;7373615;19;20015;-60
2023/07/11 06:21:04;;;;;;;8.60;4.10;;;23.30;99.90;;;;;;7371177;19;20018;-60
2023/07/11 06:23:30;;;;;;;10.13;4.00;;;23.40;99.90;;;;;;7369553;19;20517;-60
2023/07/11 06:25:57;;;;;;;6.95;3.67;;;23.60;99.90;;;;;;7369645;19;20025;-60
2023/07/11 06:28:23;;;;;;;9.40;3.80;;;23.60;99.90;;;;;;7370559;19;20080;-59
2023/07/11 06:30:50;;;;;;;9.05;4.18;;;23.70;99.90;;;;;;7367232;19;20040;-60
2023/07/11 06:33:18;;;;;;;9.30;3.58;;;23.80;99.90;;;;;;7374590;19;20506;-59
2023/07/11 06:35:51;;;;;;;8.95;3.80;;;23.90;99.90;;;;;;7369653;19;20046;-66
2023/07/11 06:38:18;;;;;;;7.38;3.25;;;23.80;99.90;;;;;;7366877;19;20033;-66
2023/07/11 06:40:55;;;;;;;11.68;3.47;;;23.90;99.90;;;;;;7373746;19;20048;-59
2023/07/11 06:43:24;;;;;;;8.20;3.63;;;23.90;99.90;;;;;;7376735;19;20021;-60
2023/07/11 06:45:55;;;;;;;9.85;4.03;;;24.00;99.90;;;;;;7372934;19;20025;-66
2023/07/11 06:48:24;;;;;;;6.25;3.53;;;24.00;99.90;;;;;;7370289;19;20378;-66
2023/07/11 06:50:53;;;;;;;8.05;3.80;;;23.70;99.90;;;;;;7369544;19;20102;-59
2023/07/11 06:53:21;;;;;;;7.18;3.88;;;23.60;99.90;;;;;;7373696;19;20018;-60
2023/07/11 06:55:52;;;;;;;10.25;3.97;;;23.50;99.90;;;;;;7369256;19;20847;-60
2023/07/11 06:58:19;;;;;;;8.02;4.03;;;23.50;99.90;;;;;;7370269;19;20014;-60
2023/07/11 07:00:58;;;;;;;10.52;4.47;;;23.40;99.90;;;;;;7372147;19;20044;-66
2023/07/11 07:03:25;;;;;;;5.43;3.28;;;23.60;99.90;;;;;;7370253;19;20490;-66
2023/07/11 07:05:54;;;;;;;6.65;3.63;;;23.80;99.90;;;;;;7370001;19;20031;-66
2023/07/11 07:08:21;;;;;;;8.05;3.67;;;24.10;99.90;;;;;;7369284;19;20022;-66
2023/07/11 07:10:48;;;;;;;7.28;3.60;;;24.60;99.90;;;;;;7367397;19;20022;-66
2023/07/11 07:13:17;;;;;;;7.35;3.88;;;24.90;99.90;;;;;;7368343;19;20047;-60
2023/07/11 07:15:51;;;;;;;6.22;3.58;;;25.20;99.90;;;;;;7364983;19;20022;-59
2023/07/11 07:18:18;;;;;;;10.02;3.63;;;25.50;99.90;;;;;;7369584;19;20612;-60
2023/07/11 07:20:46;;;;;;;8.18;3.53;;;25.50;99.90;;;;;;7369918;19;20789;-67
2023/07/11 07:23:13;;;;;;;13.27;6.38;;;25.40;99.90;;;;;;7367829;19;21242;-66
2023/07/11 07:25:40;;;;;;;6.40;3.67;;;25.20;99.90;;;;;;7364895;19;20017;-66
2023/07/11 07:28:09;;;;;;;8.20;3.55;;;25.10;99.90;;;;;;7361590;19;20022;-66
2023/07/11 07:30:35;;;;;;;7.10;3.70;;;25.40;99.90;;;;;;7368398;19;20051;-66
2023/07/11 07:33:02;;;;;;;6.70;3.40;;;25.50;99.90;;;;;;7370789;19;20025;-64
2023/07/11 07:35:28;;;;;;;6.10;2.92;;;25.70;99.90;;;;;;7365727;19;20498;-66
2023/07/11 07:37:55;;;;;;;10.23;3.60;;;25.90;99.90;;;;;;7370422;19;20863;-72
2023/07/11 07:40:21;;;;;;;7.93;4.03;;;25.90;99.90;;;;;;7378050;19;20677;-65
2023/07/11 07:42:47;;;;;;;8.77;3.50;;;25.80;99.90;;;;;;7373994;19;20042;-65
2023/07/11 07:45:13;;;;;;;7.65;3.53;;;25.70;99.90;;;;;;7365078;19;20357;-65
2023/07/11 07:47:40;;;;;;;6.70;3.20;;;25.50;99.90;;;;;;7370520;19;20018;-66
2023/07/11 07:50:06;;;;;;;6.43;3.10;;;25.50;99.90;;;;;;7368118;19;20015;-65
2023/07/11 07:52:33;;;;;;;10.13;7.35;;;25.80;99.90;;;;;;7367201;19;20014;-65
2023/07/11 07:55:02;;;;;;;8.93;3.55;;;25.90;99.90;;;;;;7369037;19;20019;-66
2023/07/11 07:57:28;;;;;;;6.53;3.38;;;26.00;99.90;;;;;;7367588;19;20015;-65
2023/07/11 07:59:55;;;;;;;6.32;3.05;;;26.10;99.90;;;;;;7367423;19;20019;-65
2023/07/11 08:02:21;;;;;;;5.82;3.42;;;26.20;99.90;;;;;;7379030;19;20093;-65
2023/07/11 08:04:48;;;;;;;8.13;3.30;;;26.10;99.90;;;;;;7373479;19;20019;-59
2023/07/11 08:07:15;;;;;;;6.00;2.63;;;26.50;99.90;;;;;;7375521;19;20051;-60
2023/07/11 08:09:42;;;;;;;9.43;3.30;;;27.00;99.90;;;;;;7377481;19;20389;-59
2023/07/11 08:12:10;;;;;;;8.23;2.97;;;27.40;99.90;;;;;;7378520;19;20086;-60
2023/07/11 08:14:39;;;;;;;8.77;4.60;;;27.90;99.90;;;;;;7381477;19;20014;-61
2023/07/11 08:17:08;;;;;;;7.32;2.90;;;28.30;99.90;;;;;;7371521;19;20737;-62
2023/07/11 08:19:35;;;;;;;10.77;2.88;;;28.40;99.90;;;;;;7377983;19;20081;-67
2023/07/11 08:22:01;;;;;;;5.75;2.80;;;28.80;99.90;;;;;;7374057;19;20442;-67
2023/07/11 08:24:28;;;;;;;8.48;3.03;;;29.00;99.90;;;;;;7373065;19;20026;-67
2023/07/11 08:26:54;;;;;;;8.98;2.75;;;29.10;99.90;;;;;;7373936;19;20029;-67
2023/07/11 08:29:21;;;;;;;6.18;2.67;;;29.30;99.90;;;;;;7376899;19;20042;-67
2023/07/11 08:31:47;;;;;;;10.45;3.00;;;29.20;99.50;;;;;;7376213;19;20033;-68
2023/07/11 08:34:13;;;;;;;8.05;3.08;;;29.20;99.20;;;;;;7373651;19;20025;-68
2023/07/11 08:36:40;;;;;;;5.97;2.30;;;29.20;97.80;;;;;;7373315;19;20195;-67
2023/07/11 08:39:06;;;;;;;7.13;2.38;;;29.40;96.40;;;;;;7371282;19;20030;-67
2023/07/11 08:41:51;;;;;;;5.82;3.13;;;29.40;96.70;;;;;;7374755;19;20053;-67
2023/07/11 08:44:48;;;;;;;6.72;2.90;;;29.70;97.30;;;;;;7374906;19;20115;-66
2023/07/11 08:47:31;;;;;;;6.20;2.25;;;29.90;96.50;;;;;;7374620;19;21821;-67
2023/07/11 08:50:12;;;;;;;7.00;2.80;;;29.60;95.30;;;;;;7370474;19;20034;-67
2023/07/11 08:52:38;;;;;;;;;;;29.50;93.20;;;;;;7376263;19;20047;-68
2023/07/11 08:55:25;;;;;;;6.68;2.42;;;29.20;93.90;;;;;;7371592;19;19926;-67
2023/07/11 08:58:09;;;;;;;7.82;2.38;;;29.10;94.00;;;;;;7368827;19;20493;-65
2023/07/11 09:00:39;;;;;;;6.00;2.50;;;29.40;92.10;;;;;;7384577;19;20498;-63
2023/07/11 09:03:39;;;;;;;9.88;3.05;;;29.40;91.50;;;;;;7376965;19;20020;-64
2023/07/11 09:06:07;;;;;;;8.57;2.40;;;29.20;89.00;;;;;;7370814;19;20437;-67
2023/07/11 09:08:41;;;;;;;9.20;2.65;;;29.20;90.40;;;;;;7375587;19;20010;-64
2023/07/11 09:11:16;;;;;;;5.00;2.17;;;29.40;90.20;;;;;;7378679;19;20043;-69
2023/07/11 09:13:59;;;;;;;7.72;2.13;;;29.50;89.90;;;;;;7381185;19;20019;-65
2023/07/11 09:16:32;;;;;;;8.77;2.35;;;29.60;82.80;;;;;;7370282;19;20019;-65
2023/07/11 09:19:35;;;;;;;6.80;2.10;;;29.80;83.50;;;;;;7370438;19;20371;-65
2023/07/11 09:22:20;;;;;;;8.75;3.40;;;30.10;83.70;;;;;;7373476;19;20098;-64
2023/07/11 09:25:34;;;;;;;6.05;2.50;;;30.10;79.70;;;;;;7369641;19;20015;-65
2023/07/11 09:28:24;;;;;;;5.18;2.22;;;29.90;76.80;;;;;;7374367;19;20022;-64
2023/07/11 09:30:57;;;;;;;9.73;2.45;;;30.00;77.00;;;;;;7369940;19;20090;-61
2023/07/11 09:33:39;;;;;;;9.43;2.28;;;30.20;77.00;;;;;;7370324;19;20050;-61
2023/07/11 09:36:26;;;;;;;5.10;1.92;;;30.40;74.10;;;;;;7371828;19;20090;-61
2023/07/11 09:39:13;;;;;;;6.50;2.28;;;30.70;77.50;;;;;;7372650;19;20688;-62
2023/07/11 09:41:55;;;;;;;8.75;5.80;;;30.70;75.50;;;;;;7377807;19;20018;-70
2023/07/11 09:44:21;;;;;;;6.32;2.97;;;31.00;77.20;;;;;;7376162;19;20020;-65
2023/07/11 09:46:48;;;;;;;8.23;2.10;;;31.30;75.30;;;;;;7371564;19;20022;-66
2023/07/11 09:49:31;;;;;;;5.35;1.80;;;31.50;71.10;;;;;;7374831;19;20029;-66
2023/07/11 09:52:03;;;;;;;7.68;3.72;;;31.80;67.80;;;;;;7365594;19;20021;-66
2023/07/11 09:54:49;;;;;;;5.25;2.05;;;32.10;70.70;;;;;;7368537;19;20279;-65
2023/07/11 09:57:16;;;;;;;5.25;1.70;;;32.10;67.20;;;;;;7371067;19;20018;-66
2023/07/11 09:59:52;;;;;;;5.65;2.17;;;32.00;63.50;;;;;;7374141;19;20074;-65
2023/07/11 10:02:22;;;;;;;4.00;1.83;;;32.20;62.90;;;;;;7367595;19;20382;-65
2023/07/11 10:04:51;;;;;;;6.75;2.75;;;32.20;62.90;;;;;;7370825;19;20851;-62
2023/07/11 10:07:21;;;;;;;6.95;3.25;;;32.00;61.70;;;;;;7375749;19;20019;-62
2023/07/11 10:09:50;;;;;;;7.00;2.53;;;31.90;62.30;;;;;;7372589;19;20129;-65
2023/07/11 10:12:21;;;;;;;6.60;2.38;;;32.00;60.30;;;;;;7371320;19;20022;-66
2023/07/11 10:14:58;;;;;;;7.10;3.03;;;32.10;60.60;;;;;;7366150;19;20041;-66
2023/07/11 10:17:36;;;;;;;7.72;1.90;;;32.60;61.60;;;;;;7369704;19;20370;-66
2023/07/11 10:20:06;;;;;;;5.72;2.22;;;32.40;58.90;;;;;;7369363;19;20498;-66
2023/07/11 10:22:33;;;;;;;4.10;1.80;;;32.40;59.00;;;;;;7368536;19;20033;-66
2023/07/11 10:25:30;;;;;;;5.50;3.30;;;31.90;58.60;;;;;;7364844;19;20029;-66
2023/07/11 10:28:21;;;;;;;3.03;1.60;;;31.50;59.00;;;;;;7365383;19;20567;-66
2023/07/11 10:30:47;;;;;;;;;;;32.00;60.10;;;;;;7370563;19;20014;-63
2023/07/11 10:33:28;;;;;;;5.50;2.53;;;32.10;63.70;;;;;;7371376;19;19915;-66
2023/07/11 10:36:22;;;;;;;7.80;2.20;;;32.40;63.40;;;;;;7368111;19;20022;-66
2023/07/11 10:38:52;;;;;;;9.27;4.22;;;32.60;61.00;;;;;;7370703;19;20041;-66
2023/07/11 10:41:31;;;;;;;4.47;2.05;;;32.70;61.00;;;;;;7367695;19;20462;-66
2023/07/11 10:44:29;;;;;;;6.35;2.83;;;33.10;59.30;;;;;;7371164;19;20723;-66
2023/07/11 10:46:56;;;;;;;5.20;1.98;;;33.00;59.20;;;;;;7363992;19;20471;-66
2023/07/11 10:49:28;;;;;;;4.50;2.13;;;32.90;58.70;;;;;;7372732;19;20121;-66
2023/07/11 10:52:01;;;;;;;7.93;4.53;;;32.90;57.60;;;;;;7366854;19;20026;-66
2023/07/11 10:54:56;;;;;;;6.88;4.18;;;32.90;58.70;;;;;;7367930;19;20400;-66
2023/07/11 10:57:42;;;;;;;8.52;3.25;;;33.20;58.40;;;;;;7370232;19;20383;-63
2023/07/11 11:00:39;;;;;;;4.10;2.03;;;33.50;57.50;;;;;;7370941;19;20029;-63
2023/07/11 11:03:17;;;;;;;7.03;4.03;;;33.70;56.00;;;;;;7368801;19;20022;-63
2023/07/11 11:05:52;;;;;;;7.00;2.00;;;33.30;56.00;;;;;;7369161;19;20017;-63
2023/07/11 11:08:27;;;;;;;5.80;2.60;;;33.30;56.40;;;;;;7371813;19;20018;-66
2023/07/11 11:11:21;;;;;;;6.28;2.30;;;33.40;56.30;;;;;;7370113;19;20018;-66
2023/07/11 11:14:05;;;;;;;4.03;1.80;;;33.50;56.30;;;;;;7370778;19;20018;-66
2023/07/11 11:16:41;;;;;;;4.47;1.92;;;33.20;55.90;;;;;;7367101;19;20357;-66
2023/07/11 11:19:50;;;;;;;5.15;2.78;;;33.40;56.30;;;;;;7365596;19;20126;-66
2023/07/11 11:22:29;;;;;;;6.03;2.20;;;33.40;56.30;;;;;;7362059;19;20105;-66
2023/07/11 11:25:01;;;;;;;5.78;2.45;;;33.70;56.60;;;;;;7364897;19;20018;-63
2023/07/11 11:27:50;;;;;;;4.22;1.67;;;33.60;56.40;;;;;;7364563;19;20389;-63
2023/07/11 11:30:49;;;;;;;5.95;3.17;;;33.70;56.30;;;;;;7367465;19;20014;-61
2023/07/11 11:33:15;;;;;;;6.78;1.63;;;33.80;55.10;;;;;;7367840;19;20141;-61
2023/07/11 11:35:53;;;;;;;4.78;2.00;;;33.60;55.70;;;;;;7377954;19;20571;-59
2023/07/11 11:38:41;;;;;;;6.10;3.22;;;33.70;53.70;;;;;;7376278;19;20018;-61
2023/07/11 11:41:16;;;;;;;5.00;2.15;;;33.70;54.60;;;;;;7376741;19;20321;-60
2023/07/11 11:43:46;;;;;;;4.80;1.98;;;33.60;53.20;;;;;;7376881;19;20035;-60
2023/07/11 11:46:14;;;;;;;7.38;2.17;;;33.60;54.10;;;;;;7378942;19;20385;-61
2023/07/11 11:48:41;;;;;;;4.10;1.58;;;33.90;54.20;;;;;;7370920;19;20382;-60
2023/07/11 11:51:13;;;;;;;6.03;3.22;;;34.40;54.10;;;;;;7372061;19;20022;-64
2023/07/11 11:53:46;;;;;;;4.88;2.20;;;34.40;52.40;;;;;;7372082;19;20046;-64
2023/07/11 11:56:18;;;;;;;7.45;2.15;;;34.00;51.50;;;;;;7363671;19;20082;-64
2023/07/11 11:59:07;;;;;;;6.43;4.50;;;34.20;53.80;;;;;;7365385;19;20025;-64
2023/07/11 12:01:41;;;;;;;4.90;1.70;;;34.50;51.60;;;;;;7371269;19;20019;-64
2023/07/11 12:04:35;;;;;;;5.28;2.22;;;34.30;52.00;;;;;;7379468;19;20532;-64
2023/07/11 12:07:10;;;;;;;3.75;1.85;;;34.20;49.90;;;;;;7373880;19;20348;-64
2023/07/11 12:09:45;;;;;;;9.13;6.72;;;34.10;50.80;;;;;;7378358;19;20534;-64
2023/07/11 12:12:23;;;;;;;5.20;2.10;;;33.60;50.10;;;;;;7377423;19;20737;-64
2023/07/11 12:14:52;;;;;;;5.63;2.53;;;33.20;50.10;;;;;;7370002;19;20090;-64
2023/07/11 12:17:51;;;;;;;5.05;1.85;;;32.60;51.30;;;;;;7366908;19;20054;-64
2023/07/11 12:20:27;;;;;;;3.85;2.13;;;32.60;54.40;;;;;;7367760;19;20015;-65
2023/07/11 12:22:53;;;;;;;6.93;2.45;;;33.20;54.30;;;;;;7367856;19;20026;-65
2023/07/11 12:25:29;;;;;;;7.03;4.70;;;33.40;53.90;;;;;;7371283;19;20263;-64
2023/07/11 12:28:00;;;;;;;4.95;2.42;;;33.70;52.50;;;;;;7371634;19;20022;-64
2023/07/11 12:30:26;;;;;;;4.68;2.42;;;34.10;51.20;;;;;;7386976;19;20044;-63
2023/07/11 12:32:57;;;;;;;4.13;1.98;;;34.00;50.10;;;;;;7391201;19;20018;-68
2023/07/11 12:35:33;;;;;;;5.97;1.60;;;33.50;50.20;;;;;;7380062;19;20061;-65
2023/07/11 12:38:10;;;;;;;5.88;2.35;;;33.10;50.30;;;;;;7380512;19;20026;-65
2023/07/11 12:40:43;;;;;;;4.10;2.28;;;33.50;52.20;;;;;;7380576;19;20044;-66
2023/07/11 12:43:30;;;;;;;4.63;1.88;;;34.10;52.80;;;;;;7371407;19;20073;-66
2023/07/11 12:45:59;;;;;;;4.25;1.65;;;34.20;51.10;;;;;;7367971;19;20066;-66
2023/07/11 12:48:31;;;;;;;7.88;2.33;;;34.10;49.90;;;;;;7369663;19;20014;-66
2023/07/11 12:51:02;;;;;;;7.97;3.53;;;33.60;50.20;;;;;;7370111;19;20032;-66
2023/07/11 12:53:38;;;;;;;5.30;2.88;;;33.60;50.50;;;;;;7363453;19;20019;-66
2023/07/11 12:56:12;;;;;;;4.45;2.00;;;33.70;50.80;;;;;;7369172;19;20019;-66
2023/07/11 12:58:40;;;;;;;5.95;2.85;;;32.80;51.20;;;;;;7369757;19;20019;-66
2023/07/11 13:01:14;;;;;;;5.05;2.70;;;32.30;52.80;;;;;;7373905;19;20014;-66
2023/07/11 13:03:40;;;;;;;5.28;2.08;;;32.20;53.40;;;;;;7370011;19;20029;-59
2023/07/11 13:06:26;;;;;;;6.00;2.47;;;32.30;53.30;;;;;;7375322;19;20691;-59